sensor_id;sensor_type;location;lat;lon;timestamp;P1;durP1;ratioP1;P2;durP2;ratioP2
57341;SDS011;43175;51.002;18.316;2024-01-06T00:00:30;81.20;;;35.20;;
57341;SDS011;43175;51.002;18.316;2024-01-06T00:02:55;93.10;;;39.30;;
57341;SDS011;43175;51.002;18.316;2024-01-06T00:05:21;92.30;;;38.90;;
57341;SDS011;43175;51.002;18.316;2024-01-06T00:07:46;89.60;;;36.90;;
57341;SDS011;43175;51.002;18.316;2024-01-06T00:10:12;91.50;;;37.90;;
57341;SDS011;43175;51.002;18.316;2024-01-06T00:12:37;93.20;;;39.00;;
57341;SDS011;43175;51.002;18.316;2024-01-06T00:15:03;87.60;;;37.00;;
57341;SDS011;43175;51.002;18.316;2024-01-06T00:17:29;88.60;;;35.20;;
57341;SDS011;43175;51.002;18.316;2024-01-06T00:19:55;87.50;;;34.20;;
57341;SDS011;43175;51.002;18.316;2024-01-06T00:22:20;78.60;;;31.70;;
57341;SDS011;43175;51.002;18.316;2024-01-06T00:24:46;77.40;;;32.50;;
57341;SDS011;43175;51.002;18.316;2024-01-06T00:27:11;84.60;;;33.90;;
57341;SDS011;43175;51.002;18.316;2024-01-06T00:29:38;85.70;;;33.30;;
57341;SDS011;43175;51.002;18.316;2024-01-06T00:32:04;78.40;;;32.50;;
57341;SDS011;43175;51.002;18.316;2024-01-06T00:34:30;84.50;;;33.90;;
57341;SDS011;43175;51.002;18.316;2024-01-06T00:36:55;87.10;;;34.30;;
57341;SDS011;43175;51.002;18.316;2024-01-06T00:39:21;82.00;;;34.20;;
57341;SDS011;43175;51.002;18.316;2024-01-06T00:41:46;88.00;;;35.70;;
57341;SDS011;43175;51.002;18.316;2024-01-06T00:44:11;84.10;;;34.90;;
57341;SDS011;43175;51.002;18.316;2024-01-06T00:46:37;84.80;;;33.90;;
57341;SDS011;43175;51.002;18.316;2024-01-06T00:49:04;81.70;;;34.50;;
57341;SDS011;43175;51.002;18.316;2024-01-06T00:51:29;92.20;;;37.20;;
57341;SDS011;43175;51.002;18.316;2024-01-06T00:53:55;101.50;;;40.20;;
57341;SDS011;43175;51.002;18.316;2024-01-06T00:56:21;103.00;;;43.80;;
57341;SDS011;43175;51.002;18.316;2024-01-06T00:58:46;86.10;;;34.70;;
57341;SDS011;43175;51.002;18.316;2024-01-06T01:01:12;88.90;;;35.10;;
57341;SDS011;43175;51.002;18.316;2024-01-06T01:03:38;90.40;;;36.90;;
57341;SDS011;43175;51.002;18.316;2024-01-06T01:06:03;91.40;;;37.20;;
57341;SDS011;43175;51.002;18.316;2024-01-06T01:08:29;93.60;;;36.60;;
57341;SDS011;43175;51.002;18.316;2024-01-06T01:10:56;103.10;;;45.30;;
57341;SDS011;43175;51.002;18.316;2024-01-06T01:13:22;95.20;;;40.30;;
57341;SDS011;43175;51.002;18.316;2024-01-06T01:15:47;93.60;;;40.40;;
57341;SDS011;43175;51.002;18.316;2024-01-06T01:18:13;107.10;;;44.90;;
57341;SDS011;43175;51.002;18.316;2024-01-06T01:20:39;116.00;;;46.90;;
57341;SDS011;43175;51.002;18.316;2024-01-06T01:23:07;114.30;;;40.90;;
57341;SDS011;43175;51.002;18.316;2024-01-06T01:25:32;102.50;;;39.60;;
57341;SDS011;43175;51.002;18.316;2024-01-06T01:27:58;90.70;;;35.50;;
57341;SDS011;43175;51.002;18.316;2024-01-06T01:30:24;89.40;;;34.80;;
57341;SDS011;43175;51.002;18.316;2024-01-06T01:32:49;87.40;;;33.10;;
57341;SDS011;43175;51.002;18.316;2024-01-06T01:35:15;87.40;;;32.40;;
57341;SDS011;43175;51.002;18.316;2024-01-06T01:37:40;95.30;;;32.30;;
57341;SDS011;43175;51.002;18.316;2024-01-06T01:40:06;88.10;;;32.10;;
57341;SDS011;43175;51.002;18.316;2024-01-06T01:42:32;93.10;;;34.10;;
57341;SDS011;43175;51.002;18.316;2024-01-06T01:44:58;93.70;;;35.50;;
57341;SDS011;43175;51.002;18.316;2024-01-06T01:47:23;100.40;;;35.50;;
57341;SDS011;43175;51.002;18.316;2024-01-06T01:49:49;97.50;;;34.50;;
57341;SDS011;43175;51.002;18.316;2024-01-06T01:52:15;95.00;;;32.80;;
57341;SDS011;43175;51.002;18.316;2024-01-06T01:54:41;104.00;;;36.60;;
57341;SDS011;43175;51.002;18.316;2024-01-06T01:57:07;104.10;;;35.90;;
57341;SDS011;43175;51.002;18.316;2024-01-06T01:59:32;95.00;;;32.80;;
57341;SDS011;43175;51.002;18.316;2024-01-06T02:01:59;100.70;;;33.50;;
57341;SDS011;43175;51.002;18.316;2024-01-06T02:04:25;92.00;;;32.20;;
57341;SDS011;43175;51.002;18.316;2024-01-06T02:06:50;96.80;;;32.20;;
57341;SDS011;43175;51.002;18.316;2024-01-06T02:09:15;98.80;;;34.60;;
57341;SDS011;43175;51.002;18.316;2024-01-06T02:11:41;97.10;;;33.20;;
57341;SDS011;43175;51.002;18.316;2024-01-06T02:14:06;100.90;;;35.00;;
57341;SDS011;43175;51.002;18.316;2024-01-06T02:16:32;102.60;;;33.80;;
57341;SDS011;43175;51.002;18.316;2024-01-06T02:18:57;98.80;;;34.70;;
57341;SDS011;43175;51.002;18.316;2024-01-06T02:21:23;98.30;;;33.60;;
57341;SDS011;43175;51.002;18.316;2024-01-06T02:23:49;99.00;;;32.80;;
57341;SDS011;43175;51.002;18.316;2024-01-06T02:26:14;99.80;;;34.90;;
57341;SDS011;43175;51.002;18.316;2024-01-06T02:28:40;102.00;;;34.20;;
57341;SDS011;43175;51.002;18.316;2024-01-06T02:31:06;103.70;;;33.50;;
57341;SDS011;43175;51.002;18.316;2024-01-06T02:33:31;94.10;;;31.70;;
57341;SDS011;43175;51.002;18.316;2024-01-06T02:35:57;104.80;;;34.30;;
57341;SDS011;43175;51.002;18.316;2024-01-06T02:38:22;92.20;;;31.50;;
57341;SDS011;43175;51.002;18.316;2024-01-06T02:40:48;96.20;;;33.10;;
57341;SDS011;43175;51.002;18.316;2024-01-06T02:43:13;101.00;;;33.20;;
57341;SDS011;43175;51.002;18.316;2024-01-06T02:45:39;100.80;;;34.00;;
57341;SDS011;43175;51.002;18.316;2024-01-06T02:48:04;87.80;;;30.60;;
57341;SDS011;43175;51.002;18.316;2024-01-06T02:50:30;92.50;;;33.00;;
57341;SDS011;43175;51.002;18.316;2024-01-06T02:52:55;95.70;;;33.40;;
57341;SDS011;43175;51.002;18.316;2024-01-06T02:55:22;87.90;;;32.20;;
57341;SDS011;43175;51.002;18.316;2024-01-06T02:57:47;91.60;;;31.90;;
57341;SDS011;43175;51.002;18.316;2024-01-06T03:00:13;84.90;;;30.50;;
57341;SDS011;43175;51.002;18.316;2024-01-06T03:02:38;75.40;;;30.40;;
57341;SDS011;43175;51.002;18.316;2024-01-06T03:05:07;80.00;;;30.50;;
57341;SDS011;43175;51.002;18.316;2024-01-06T03:07:33;83.90;;;30.80;;
57341;SDS011;43175;51.002;18.316;2024-01-06T03:09:58;84.50;;;33.70;;
57341;SDS011;43175;51.002;18.316;2024-01-06T03:12:24;82.20;;;30.50;;
57341;SDS011;43175;51.002;18.316;2024-01-06T03:14:49;90.40;;;35.30;;
57341;SDS011;43175;51.002;18.316;2024-01-06T03:17:15;81.00;;;31.40;;
57341;SDS011;43175;51.002;18.316;2024-01-06T03:19:40;71.20;;;30.30;;
57341;SDS011;43175;51.002;18.316;2024-01-06T03:22:05;65.00;;;27.20;;
57341;SDS011;43175;51.002;18.316;2024-01-06T03:24:31;63.60;;;27.80;;
57341;SDS011;43175;51.002;18.316;2024-01-06T03:26:57;55.90;;;27.30;;
57341;SDS011;43175;51.002;18.316;2024-01-06T03:29:22;63.60;;;27.10;;
57341;SDS011;43175;51.002;18.316;2024-01-06T03:31:48;63.00;;;28.60;;
57341;SDS011;43175;51.002;18.316;2024-01-06T03:34:13;57.10;;;27.30;;
57341;SDS011;43175;51.002;18.316;2024-01-06T03:36:39;54.60;;;26.30;;
57341;SDS011;43175;51.002;18.316;2024-01-06T03:39:04;61.20;;;27.00;;
57341;SDS011;43175;51.002;18.316;2024-01-06T03:41:30;52.90;;;25.20;;
57341;SDS011;43175;51.002;18.316;2024-01-06T03:43:56;58.70;;;27.30;;
57341;SDS011;43175;51.002;18.316;2024-01-06T03:46:22;62.40;;;28.50;;
57341;SDS011;43175;51.002;18.316;2024-01-06T03:48:47;59.80;;;27.40;;
57341;SDS011;43175;51.002;18.316;2024-01-06T03:51:13;58.00;;;27.20;;
57341;SDS011;43175;51.002;18.316;2024-01-06T03:53:38;53.60;;;24.70;;
57341;SDS011;43175;51.002;18.316;2024-01-06T03:56:05;50.80;;;23.20;;
57341;SDS011;43175;51.002;18.316;2024-01-06T03:58:30;48.70;;;23.70;;
57341;SDS011;43175;51.002;18.316;2024-01-06T04:00:56;49.20;;;22.90;;
57341;SDS011;43175;51.002;18.316;2024-01-06T04:03:21;46.40;;;22.90;;
57341;SDS011;43175;51.002;18.316;2024-01-06T04:05:47;47.40;;;22.60;;
57341;SDS011;43175;51.002;18.316;2024-01-06T04:08:13;53.00;;;24.00;;
57341;SDS011;43175;51.002;18.316;2024-01-06T04:10:38;47.80;;;22.70;;
57341;SDS011;43175;51.002;18.316;2024-01-06T04:13:04;47.80;;;22.80;;
57341;SDS011;43175;51.002;18.316;2024-01-06T04:15:30;46.90;;;21.50;;
57341;SDS011;43175;51.002;18.316;2024-01-06T04:17:56;47.40;;;23.30;;
57341;SDS011;43175;51.002;18.316;2024-01-06T04:20:21;47.10;;;22.00;;
57341;SDS011;43175;51.002;18.316;2024-01-06T04:22:47;45.00;;;21.60;;
57341;SDS011;43175;51.002;18.316;2024-01-06T04:25:12;45.50;;;22.60;;
57341;SDS011;43175;51.002;18.316;2024-01-06T04:27:38;46.80;;;22.10;;
57341;SDS011;43175;51.002;18.316;2024-01-06T04:30:03;42.40;;;20.20;;
57341;SDS011;43175;51.002;18.316;2024-01-06T04:32:29;42.20;;;20.30;;
57341;SDS011;43175;51.002;18.316;2024-01-06T04:34:55;45.70;;;22.00;;
57341;SDS011;43175;51.002;18.316;2024-01-06T04:37:22;43.70;;;21.30;;
57341;SDS011;43175;51.002;18.316;2024-01-06T04:39:48;42.10;;;21.00;;
57341;SDS011;43175;51.002;18.316;2024-01-06T04:42:13;44.40;;;21.50;;
57341;SDS011;43175;51.002;18.316;2024-01-06T04:44:38;42.70;;;20.50;;
57341;SDS011;43175;51.002;18.316;2024-01-06T04:47:04;44.20;;;20.10;;
57341;SDS011;43175;51.002;18.316;2024-01-06T04:49:29;46.80;;;21.50;;
57341;SDS011;43175;51.002;18.316;2024-01-06T04:51:55;42.50;;;20.10;;
57341;SDS011;43175;51.002;18.316;2024-01-06T04:54:21;43.90;;;22.30;;
57341;SDS011;43175;51.002;18.316;2024-01-06T04:56:47;41.10;;;19.50;;
57341;SDS011;43175;51.002;18.316;2024-01-06T04:59:13;44.00;;;21.10;;
57341;SDS011;43175;51.002;18.316;2024-01-06T05:01:38;47.40;;;22.60;;
57341;SDS011;43175;51.002;18.316;2024-01-06T05:04:04;44.80;;;21.20;;
57341;SDS011;43175;51.002;18.316;2024-01-06T05:06:29;43.90;;;20.80;;
57341;SDS011;43175;51.002;18.316;2024-01-06T05:08:55;43.40;;;20.60;;
57341;SDS011;43175;51.002;18.316;2024-01-06T05:11:20;41.90;;;19.40;;
57341;SDS011;43175;51.002;18.316;2024-01-06T05:13:45;41.50;;;20.00;;
57341;SDS011;43175;51.002;18.316;2024-01-06T05:16:11;41.30;;;19.80;;
57341;SDS011;43175;51.002;18.316;2024-01-06T05:18:37;45.20;;;21.90;;
57341;SDS011;43175;51.002;18.316;2024-01-06T05:21:02;46.70;;;22.30;;
57341;SDS011;43175;51.002;18.316;2024-01-06T05:23:28;51.60;;;23.00;;
57341;SDS011;43175;51.002;18.316;2024-01-06T05:25:54;54.20;;;25.40;;
57341;SDS011;43175;51.002;18.316;2024-01-06T05:28:19;49.00;;;24.00;;
57341;SDS011;43175;51.002;18.316;2024-01-06T05:30:45;53.80;;;24.10;;
57341;SDS011;43175;51.002;18.316;2024-01-06T05:33:11;52.00;;;24.10;;
57341;SDS011;43175;51.002;18.316;2024-01-06T05:35:38;46.30;;;22.50;;
57341;SDS011;43175;51.002;18.316;2024-01-06T05:38:04;46.00;;;22.90;;
57341;SDS011;43175;51.002;18.316;2024-01-06T05:40:29;49.40;;;24.60;;
57341;SDS011;43175;51.002;18.316;2024-01-06T05:42:54;44.30;;;22.80;;
57341;SDS011;43175;51.002;18.316;2024-01-06T05:45:21;47.70;;;23.00;;
57341;SDS011;43175;51.002;18.316;2024-01-06T05:47:47;48.20;;;22.80;;
57341;SDS011;43175;51.002;18.316;2024-01-06T05:50:14;48.20;;;24.40;;
57341;SDS011;43175;51.002;18.316;2024-01-06T05:52:40;44.90;;;21.40;;
57341;SDS011;43175;51.002;18.316;2024-01-06T05:55:06;51.80;;;25.30;;
57341;SDS011;43175;51.002;18.316;2024-01-06T05:57:31;44.20;;;21.60;;
57341;SDS011;43175;51.002;18.316;2024-01-06T05:59:57;47.70;;;23.70;;
57341;SDS011;43175;51.002;18.316;2024-01-06T06:02:22;46.90;;;22.20;;
57341;SDS011;43175;51.002;18.316;2024-01-06T06:04:48;46.00;;;22.00;;
57341;SDS011;43175;51.002;18.316;2024-01-06T06:07:13;48.90;;;23.80;;
57341;SDS011;43175;51.002;18.316;2024-01-06T06:09:39;48.00;;;22.30;;
57341;SDS011;43175;51.002;18.316;2024-01-06T06:12:05;51.00;;;25.00;;
57341;SDS011;43175;51.002;18.316;2024-01-06T06:14:31;58.70;;;26.70;;
57341;SDS011;43175;51.002;18.316;2024-01-06T06:16:56;48.70;;;23.70;;
57341;SDS011;43175;51.002;18.316;2024-01-06T06:19:22;45.80;;;23.50;;
57341;SDS011;43175;51.002;18.316;2024-01-06T06:21:47;50.20;;;23.70;;
57341;SDS011;43175;51.002;18.316;2024-01-06T06:24:13;50.40;;;24.40;;
57341;SDS011;43175;51.002;18.316;2024-01-06T06:26:39;47.00;;;24.10;;
57341;SDS011;43175;51.002;18.316;2024-01-06T06:29:04;47.50;;;23.60;;
57341;SDS011;43175;51.002;18.316;2024-01-06T06:31:30;50.50;;;21.70;;
57341;SDS011;43175;51.002;18.316;2024-01-06T06:33:55;48.40;;;23.30;;
57341;SDS011;43175;51.002;18.316;2024-01-06T06:36:20;45.90;;;22.40;;
57341;SDS011;43175;51.002;18.316;2024-01-06T06:38:46;47.60;;;21.70;;
57341;SDS011;43175;51.002;18.316;2024-01-06T06:41:11;49.90;;;23.50;;
57341;SDS011;43175;51.002;18.316;2024-01-06T06:43:37;42.20;;;21.90;;
57341;SDS011;43175;51.002;18.316;2024-01-06T06:46:03;45.20;;;22.50;;
57341;SDS011;43175;51.002;18.316;2024-01-06T06:48:28;46.80;;;23.30;;
57341;SDS011;43175;51.002;18.316;2024-01-06T06:50:54;45.00;;;21.80;;
57341;SDS011;43175;51.002;18.316;2024-01-06T06:53:20;41.70;;;20.40;;
57341;SDS011;43175;51.002;18.316;2024-01-06T06:55:45;44.00;;;21.00;;
57341;SDS011;43175;51.002;18.316;2024-01-06T06:58:11;44.70;;;22.00;;
57341;SDS011;43175;51.002;18.316;2024-01-06T07:00:37;42.80;;;21.20;;
57341;SDS011;43175;51.002;18.316;2024-01-06T07:03:03;43.90;;;20.90;;
57341;SDS011;43175;51.002;18.316;2024-01-06T07:05:29;45.70;;;22.30;;
57341;SDS011;43175;51.002;18.316;2024-01-06T07:07:54;47.90;;;22.50;;
57341;SDS011;43175;51.002;18.316;2024-01-06T07:10:20;47.90;;;21.80;;
57341;SDS011;43175;51.002;18.316;2024-01-06T07:12:45;47.50;;;22.90;;
57341;SDS011;43175;51.002;18.316;2024-01-06T07:15:11;49.80;;;23.50;;
57341;SDS011;43175;51.002;18.316;2024-01-06T07:17:37;54.90;;;28.70;;
57341;SDS011;43175;51.002;18.316;2024-01-06T07:20:04;73.10;;;37.30;;
57341;SDS011;43175;51.002;18.316;2024-01-06T07:22:30;55.30;;;28.00;;
57341;SDS011;43175;51.002;18.316;2024-01-06T07:24:55;69.40;;;35.20;;
57341;SDS011;43175;51.002;18.316;2024-01-06T07:27:20;57.90;;;29.90;;
57341;SDS011;43175;51.002;18.316;2024-01-06T07:29:46;65.80;;;32.60;;
57341;SDS011;43175;51.002;18.316;2024-01-06T07:32:12;71.20;;;33.90;;
57341;SDS011;43175;51.002;18.316;2024-01-06T07:34:37;87.00;;;46.10;;
57341;SDS011;43175;51.002;18.316;2024-01-06T07:37:03;63.70;;;34.40;;
57341;SDS011;43175;51.002;18.316;2024-01-06T07:39:28;54.10;;;27.70;;
57341;SDS011;43175;51.002;18.316;2024-01-06T07:41:54;53.00;;;26.00;;
57341;SDS011;43175;51.002;18.316;2024-01-06T07:44:19;61.00;;;29.00;;
57341;SDS011;43175;51.002;18.316;2024-01-06T07:46:50;65.60;;;34.60;;
57341;SDS011;43175;51.002;18.316;2024-01-06T07:49:15;72.90;;;35.70;;
57341;SDS011;43175;51.002;18.316;2024-01-06T07:51:41;94.20;;;48.30;;
57341;SDS011;43175;51.002;18.316;2024-01-06T07:54:07;59.30;;;33.30;;
57341;SDS011;43175;51.002;18.316;2024-01-06T07:56:34;58.30;;;32.30;;
57341;SDS011;43175;51.002;18.316;2024-01-06T07:59:00;47.10;;;26.50;;
57341;SDS011;43175;51.002;18.316;2024-01-06T08:01:26;45.00;;;24.10;;
57341;SDS011;43175;51.002;18.316;2024-01-06T08:03:51;43.20;;;21.30;;
57341;SDS011;43175;51.002;18.316;2024-01-06T08:06:17;40.80;;;21.90;;
57341;SDS011;43175;51.002;18.316;2024-01-06T08:08:42;45.40;;;22.40;;
57341;SDS011;43175;51.002;18.316;2024-01-06T08:11:08;40.30;;;21.20;;
57341;SDS011;43175;51.002;18.316;2024-01-06T08:13:33;40.40;;;20.70;;
57341;SDS011;43175;51.002;18.316;2024-01-06T08:15:59;43.20;;;20.50;;
57341;SDS011;43175;51.002;18.316;2024-01-06T08:18:26;39.50;;;20.20;;
57341;SDS011;43175;51.002;18.316;2024-01-06T08:20:52;43.00;;;20.20;;
57341;SDS011;43175;51.002;18.316;2024-01-06T08:23:18;41.40;;;20.70;;
57341;SDS011;43175;51.002;18.316;2024-01-06T08:25:45;38.10;;;20.10;;
57341;SDS011;43175;51.002;18.316;2024-01-06T08:28:11;42.60;;;20.80;;
57341;SDS011;43175;51.002;18.316;2024-01-06T08:30:36;46.40;;;24.60;;
57341;SDS011;43175;51.002;18.316;2024-01-06T08:33:02;41.10;;;21.70;;
57341;SDS011;43175;51.002;18.316;2024-01-06T08:35:28;39.10;;;19.90;;
57341;SDS011;43175;51.002;18.316;2024-01-06T08:37:54;40.40;;;20.80;;
57341;SDS011;43175;51.002;18.316;2024-01-06T08:40:19;43.70;;;20.60;;
57341;SDS011;43175;51.002;18.316;2024-01-06T08:42:44;37.90;;;19.40;;
57341;SDS011;43175;51.002;18.316;2024-01-06T08:45:10;39.70;;;20.20;;
57341;SDS011;43175;51.002;18.316;2024-01-06T08:47:35;36.90;;;18.80;;
57341;SDS011;43175;51.002;18.316;2024-01-06T08:50:01;36.80;;;19.30;;
57341;SDS011;43175;51.002;18.316;2024-01-06T08:52:26;37.50;;;19.60;;
57341;SDS011;43175;51.002;18.316;2024-01-06T08:54:51;36.80;;;18.50;;
57341;SDS011;43175;51.002;18.316;2024-01-06T08:57:17;35.90;;;18.20;;
57341;SDS011;43175;51.002;18.316;2024-01-06T08:59:43;38.40;;;18.80;;
57341;SDS011;43175;51.002;18.316;2024-01-06T09:02:13;38.90;;;18.70;;
57341;SDS011;43175;51.002;18.316;2024-01-06T09:04:38;38.60;;;19.00;;
57341;SDS011;43175;51.002;18.316;2024-01-06T09:07:04;36.20;;;17.70;;
57341;SDS011;43175;51.002;18.316;2024-01-06T09:09:33;40.00;;;19.10;;
57341;SDS011;43175;51.002;18.316;2024-01-06T09:11:58;34.90;;;18.00;;
57341;SDS011;43175;51.002;18.316;2024-01-06T09:14:27;34.40;;;18.00;;
57341;SDS011;43175;51.002;18.316;2024-01-06T09:16:52;37.90;;;19.10;;
57341;SDS011;43175;51.002;18.316;2024-01-06T09:19:17;34.80;;;18.40;;
57341;SDS011;43175;51.002;18.316;2024-01-06T09:21:43;36.60;;;17.40;;
57341;SDS011;43175;51.002;18.316;2024-01-06T09:24:08;37.00;;;17.80;;
57341;SDS011;43175;51.002;18.316;2024-01-06T09:26:34;35.60;;;18.30;;
57341;SDS011;43175;51.002;18.316;2024-01-06T09:29:00;35.60;;;18.40;;
57341;SDS011;43175;51.002;18.316;2024-01-06T09:31:25;35.20;;;18.20;;
57341;SDS011;43175;51.002;18.316;2024-01-06T09:33:51;34.90;;;18.10;;
57341;SDS011;43175;51.002;18.316;2024-01-06T09:36:16;37.50;;;18.10;;
57341;SDS011;43175;51.002;18.316;2024-01-06T09:38:43;38.50;;;18.00;;
57341;SDS011;43175;51.002;18.316;2024-01-06T09:41:09;35.90;;;18.70;;
57341;SDS011;43175;51.002;18.316;2024-01-06T09:43:34;38.80;;;18.50;;
57341;SDS011;43175;51.002;18.316;2024-01-06T09:46:10;37.10;;;19.10;;
57341;SDS011;43175;51.002;18.316;2024-01-06T09:48:41;37.30;;;19.00;;
57341;SDS011;43175;51.002;18.316;2024-01-06T09:51:10;38.60;;;19.00;;
57341;SDS011;43175;51.002;18.316;2024-01-06T09:53:38;36.10;;;18.20;;
57341;SDS011;43175;51.002;18.316;2024-01-06T09:56:06;37.80;;;18.80;;
57341;SDS011;43175;51.002;18.316;2024-01-06T09:58:32;37.10;;;19.10;;
57341;SDS011;43175;51.002;18.316;2024-01-06T10:01:00;38.30;;;18.70;;
57341;SDS011;43175;51.002;18.316;2024-01-06T10:03:27;36.80;;;18.90;;
57341;SDS011;43175;51.002;18.316;2024-01-06T10:05:52;38.80;;;18.50;;
57341;SDS011;43175;51.002;18.316;2024-01-06T10:08:18;40.80;;;19.20;;
57341;SDS011;43175;51.002;18.316;2024-01-06T10:10:44;38.60;;;19.10;;
57341;SDS011;43175;51.002;18.316;2024-01-06T10:13:10;39.30;;;18.40;;
57341;SDS011;43175;51.002;18.316;2024-01-06T10:15:35;40.70;;;18.70;;
57341;SDS011;43175;51.002;18.316;2024-01-06T10:18:01;39.60;;;20.20;;
57341;SDS011;43175;51.002;18.316;2024-01-06T10:20:28;44.90;;;22.60;;
57341;SDS011;43175;51.002;18.316;2024-01-06T10:22:54;44.60;;;22.10;;
57341;SDS011;43175;51.002;18.316;2024-01-06T10:25:21;43.80;;;22.20;;
57341;SDS011;43175;51.002;18.316;2024-01-06T10:27:48;54.30;;;27.70;;
57341;SDS011;43175;51.002;18.316;2024-01-06T10:30:14;42.70;;;23.00;;
57341;SDS011;43175;51.002;18.316;2024-01-06T10:32:43;47.50;;;26.10;;
57341;SDS011;43175;51.002;18.316;2024-01-06T10:35:09;41.60;;;21.20;;
57341;SDS011;43175;51.002;18.316;2024-01-06T10:37:35;45.20;;;24.90;;
57341;SDS011;43175;51.002;18.316;2024-01-06T10:42:32;47.10;;;23.20;;
57341;SDS011;43175;51.002;18.316;2024-01-06T10:44:58;47.20;;;23.80;;
57341;SDS011;43175;51.002;18.316;2024-01-06T10:47:24;49.60;;;26.30;;
57341;SDS011;43175;51.002;18.316;2024-01-06T10:49:52;52.20;;;27.20;;
57341;SDS011;43175;51.002;18.316;2024-01-06T10:52:20;50.80;;;25.90;;
57341;SDS011;43175;51.002;18.316;2024-01-06T10:54:46;49.30;;;25.80;;
57341;SDS011;43175;51.002;18.316;2024-01-06T10:57:15;53.60;;;27.80;;
57341;SDS011;43175;51.002;18.316;2024-01-06T10:59:40;52.80;;;27.50;;
57341;SDS011;43175;51.002;18.316;2024-01-06T11:02:06;49.80;;;25.70;;
57341;SDS011;43175;51.002;18.316;2024-01-06T11:04:33;55.60;;;28.80;;
57341;SDS011;43175;51.002;18.316;2024-01-06T11:06:58;52.00;;;26.60;;
57341;SDS011;43175;51.002;18.316;2024-01-06T11:09:25;51.60;;;26.30;;
57341;SDS011;43175;51.002;18.316;2024-01-06T11:11:51;52.10;;;27.70;;
57341;SDS011;43175;51.002;18.316;2024-01-06T11:14:19;52.80;;;27.00;;
57341;SDS011;43175;51.002;18.316;2024-01-06T11:16:48;58.10;;;28.20;;
57341;SDS011;43175;51.002;18.316;2024-01-06T11:21:57;54.50;;;29.30;;
57341;SDS011;43175;51.002;18.316;2024-01-06T11:24:43;56.80;;;28.80;;
57341;SDS011;43175;51.002;18.316;2024-01-06T11:27:16;59.40;;;28.80;;
57341;SDS011;43175;51.002;18.316;2024-01-06T11:29:43;58.10;;;29.40;;
57341;SDS011;43175;51.002;18.316;2024-01-06T11:32:19;56.30;;;29.10;;
57341;SDS011;43175;51.002;18.316;2024-01-06T11:34:51;58.30;;;29.20;;
57341;SDS011;43175;51.002;18.316;2024-01-06T11:37:19;58.70;;;28.50;;
57341;SDS011;43175;51.002;18.316;2024-01-06T11:39:45;62.90;;;28.90;;
57341;SDS011;43175;51.002;18.316;2024-01-06T11:42:10;60.20;;;29.90;;
57341;SDS011;43175;51.002;18.316;2024-01-06T11:44:37;63.00;;;30.90;;
57341;SDS011;43175;51.002;18.316;2024-01-06T11:47:03;64.70;;;31.80;;
57341;SDS011;43175;51.002;18.316;2024-01-06T11:49:29;61.60;;;31.20;;
57341;SDS011;43175;51.002;18.316;2024-01-06T11:51:54;61.20;;;29.90;;
57341;SDS011;43175;51.002;18.316;2024-01-06T11:54:21;61.70;;;30.70;;
57341;SDS011;43175;51.002;18.316;2024-01-06T11:56:47;63.40;;;29.90;;
57341;SDS011;43175;51.002;18.316;2024-01-06T11:59:12;60.60;;;29.90;;
57341;SDS011;43175;51.002;18.316;2024-01-06T12:01:38;64.00;;;30.60;;
57341;SDS011;43175;51.002;18.316;2024-01-06T12:04:04;62.10;;;30.30;;
57341;SDS011;43175;51.002;18.316;2024-01-06T12:06:30;59.90;;;29.50;;
57341;SDS011;43175;51.002;18.316;2024-01-06T12:09:05;62.10;;;30.20;;
57341;SDS011;43175;51.002;18.316;2024-01-06T12:11:32;62.00;;;29.80;;
57341;SDS011;43175;51.002;18.316;2024-01-06T12:13:58;62.80;;;31.00;;
57341;SDS011;43175;51.002;18.316;2024-01-06T12:16:24;59.10;;;29.40;;
57341;SDS011;43175;51.002;18.316;2024-01-06T12:18:55;59.50;;;28.40;;
57341;SDS011;43175;51.002;18.316;2024-01-06T12:21:22;58.60;;;28.90;;
57341;SDS011;43175;51.002;18.316;2024-01-06T12:23:48;61.90;;;30.70;;
57341;SDS011;43175;51.002;18.316;2024-01-06T12:26:13;63.30;;;30.40;;
57341;SDS011;43175;51.002;18.316;2024-01-06T12:28:39;60.60;;;29.20;;
57341;SDS011;43175;51.002;18.316;2024-01-06T12:31:04;59.70;;;28.40;;
57341;SDS011;43175;51.002;18.316;2024-01-06T12:33:30;63.50;;;28.70;;
57341;SDS011;43175;51.002;18.316;2024-01-06T12:35:57;64.30;;;29.80;;
57341;SDS011;43175;51.002;18.316;2024-01-06T12:38:24;61.20;;;28.20;;
57341;SDS011;43175;51.002;18.316;2024-01-06T12:40:53;63.60;;;30.20;;
57341;SDS011;43175;51.002;18.316;2024-01-06T12:43:19;64.60;;;29.50;;
57341;SDS011;43175;51.002;18.316;2024-01-06T12:45:45;61.60;;;27.80;;
57341;SDS011;43175;51.002;18.316;2024-01-06T12:48:10;60.60;;;29.90;;
57341;SDS011;43175;51.002;18.316;2024-01-06T12:50:36;59.20;;;29.50;;
57341;SDS011;43175;51.002;18.316;2024-01-06T12:53:02;63.10;;;28.50;;
57341;SDS011;43175;51.002;18.316;2024-01-06T12:55:27;60.90;;;28.10;;
57341;SDS011;43175;51.002;18.316;2024-01-06T12:57:53;59.80;;;27.80;;
57341;SDS011;43175;51.002;18.316;2024-01-06T13:00:19;64.30;;;29.00;;
57341;SDS011;43175;51.002;18.316;2024-01-06T13:02:45;62.90;;;28.40;;
57341;SDS011;43175;51.002;18.316;2024-01-06T13:05:10;64.70;;;28.90;;
57341;SDS011;43175;51.002;18.316;2024-01-06T13:07:38;64.40;;;29.00;;
57341;SDS011;43175;51.002;18.316;2024-01-06T13:10:04;63.00;;;29.60;;
57341;SDS011;43175;51.002;18.316;2024-01-06T13:12:30;61.20;;;29.20;;
57341;SDS011;43175;51.002;18.316;2024-01-06T13:14:55;67.30;;;31.40;;
57341;SDS011;43175;51.002;18.316;2024-01-06T13:17:21;62.70;;;29.20;;
57341;SDS011;43175;51.002;18.316;2024-01-06T13:19:48;71.00;;;33.90;;
57341;SDS011;43175;51.002;18.316;2024-01-06T13:22:13;67.90;;;31.10;;
57341;SDS011;43175;51.002;18.316;2024-01-06T13:24:40;73.50;;;34.10;;
57341;SDS011;43175;51.002;18.316;2024-01-06T13:27:06;63.60;;;30.20;;
57341;SDS011;43175;51.002;18.316;2024-01-06T13:29:31;65.60;;;30.80;;
57341;SDS011;43175;51.002;18.316;2024-01-06T13:31:57;63.00;;;28.50;;
57341;SDS011;43175;51.002;18.316;2024-01-06T13:34:24;63.20;;;28.00;;
57341;SDS011;43175;51.002;18.316;2024-01-06T13:36:50;60.10;;;28.80;;
57341;SDS011;43175;51.002;18.316;2024-01-06T13:39:15;54.10;;;26.80;;
57341;SDS011;43175;51.002;18.316;2024-01-06T13:41:46;53.70;;;25.40;;
57341;SDS011;43175;51.002;18.316;2024-01-06T13:44:13;50.60;;;23.80;;
57341;SDS011;43175;51.002;18.316;2024-01-06T13:46:39;53.20;;;25.00;;
57341;SDS011;43175;51.002;18.316;2024-01-06T13:49:06;52.80;;;25.00;;
57341;SDS011;43175;51.002;18.316;2024-01-06T13:51:32;54.70;;;26.50;;
57341;SDS011;43175;51.002;18.316;2024-01-06T13:53:58;51.70;;;25.40;;
57341;SDS011;43175;51.002;18.316;2024-01-06T13:56:23;55.10;;;25.90;;
57341;SDS011;43175;51.002;18.316;2024-01-06T13:58:48;52.60;;;25.20;;
57341;SDS011;43175;51.002;18.316;2024-01-06T14:01:14;55.40;;;25.80;;
57341;SDS011;43175;51.002;18.316;2024-01-06T14:03:40;54.30;;;26.50;;
57341;SDS011;43175;51.002;18.316;2024-01-06T14:06:06;58.70;;;27.80;;